sensor_id;sensor_type;location;lat;lon;timestamp;P1;durP1;ratioP1;P2;durP2;ratioP2
6751;SDS011;3413;47.680;9.166;2022-07-29T00:01:04;6.20;;;2.20;;
6751;SDS011;3413;47.680;9.166;2022-07-29T00:06:06;4.77;;;1.77;;
6751;SDS011;3413;47.680;9.166;2022-07-29T00:11:08;3.30;;;2.17;;
6751;SDS011;3413;47.680;9.166;2022-07-29T00:16:10;2.80;;;1.90;;
6751;SDS011;3413;47.680;9.166;2022-07-29T00:21:12;3.50;;;2.00;;
6751;SDS011;3413;47.680;9.166;2022-07-29T00:26:14;2.70;;;2.00;;
6751;SDS011;3413;47.680;9.166;2022-07-29T00:31:16;4.77;;;1.87;;
6751;SDS011;3413;47.680;9.166;2022-07-29T00:36:19;4.40;;;1.90;;
6751;SDS011;3413;47.680;9.166;2022-07-29T00:41:22;3.47;;;2.00;;
6751;SDS011;3413;47.680;9.166;2022-07-29T00:46:24;3.00;;;1.87;;
6751;SDS011;3413;47.680;9.166;2022-07-29T00:51:26;3.57;;;1.83;;
6751;SDS011;3413;47.680;9.166;2022-07-29T00:56:32;2.57;;;1.83;;
6751;SDS011;3413;47.680;9.166;2022-07-29T01:01:34;2.60;;;1.80;;
6751;SDS011;3413;47.680;9.166;2022-07-29T01:06:37;2.47;;;1.93;;
6751;SDS011;3413;47.680;9.166;2022-07-29T01:11:40;3.40;;;1.80;;
6751;SDS011;3413;47.680;9.166;2022-07-29T01:16:46;5.30;;;2.40;;
6751;SDS011;3413;47.680;9.166;2022-07-29T01:21:57;4.63;;;2.20;;
6751;SDS011;3413;47.680;9.166;2022-07-29T01:27:11;2.80;;;2.03;;
6751;SDS011;3413;47.680;9.166;2022-07-29T01:32:22;4.73;;;2.10;;
6751;SDS011;3413;47.680;9.166;2022-07-29T01:42:44;2.77;;;2.07;;
6751;SDS011;3413;47.680;9.166;2022-07-29T01:47:58;3.53;;;2.00;;
6751;SDS011;3413;47.680;9.166;2022-07-29T01:53:05;3.63;;;2.10;;
6751;SDS011;3413;47.680;9.166;2022-07-29T01:58:08;4.03;;;2.07;;
6751;SDS011;3413;47.680;9.166;2022-07-29T02:03:11;4.20;;;2.30;;
6751;SDS011;3413;47.680;9.166;2022-07-29T02:08:14;3.00;;;2.10;;
6751;SDS011;3413;47.680;9.166;2022-07-29T02:13:17;2.80;;;2.30;;
6751;SDS011;3413;47.680;9.166;2022-07-29T02:18:20;4.03;;;2.40;;
6751;SDS011;3413;47.680;9.166;2022-07-29T02:23:24;4.40;;;2.37;;
6751;SDS011;3413;47.680;9.166;2022-07-29T02:28:27;5.50;;;2.43;;
6751;SDS011;3413;47.680;9.166;2022-07-29T02:33:30;5.00;;;2.40;;
6751;SDS011;3413;47.680;9.166;2022-07-29T02:38:33;4.60;;;2.50;;
6751;SDS011;3413;47.680;9.166;2022-07-29T02:43:53;3.73;;;2.00;;
6751;SDS011;3413;47.680;9.166;2022-07-29T02:59:44;4.20;;;2.23;;
6751;SDS011;3413;47.680;9.166;2022-07-29T03:04:49;3.63;;;2.40;;
6751;SDS011;3413;47.680;9.166;2022-07-29T03:09:52;6.30;;;2.50;;
6751;SDS011;3413;47.680;9.166;2022-07-29T03:14:55;5.33;;;2.37;;
6751;SDS011;3413;47.680;9.166;2022-07-29T03:19:58;4.40;;;2.27;;
6751;SDS011;3413;47.680;9.166;2022-07-29T03:25:07;4.77;;;2.30;;
6751;SDS011;3413;47.680;9.166;2022-07-29T03:30:09;8.63;;;2.40;;
6751;SDS011;3413;47.680;9.166;2022-07-29T03:35:21;4.10;;;2.57;;
6751;SDS011;3413;47.680;9.166;2022-07-29T03:40:33;3.27;;;2.20;;
6751;SDS011;3413;47.680;9.166;2022-07-29T03:45:40;2.60;;;2.00;;
6751;SDS011;3413;47.680;9.166;2022-07-29T03:50:45;3.73;;;2.40;;
6751;SDS011;3413;47.680;9.166;2022-07-29T03:55:48;3.63;;;2.70;;
6751;SDS011;3413;47.680;9.166;2022-07-29T04:00:55;5.53;;;2.80;;
6751;SDS011;3413;47.680;9.166;2022-07-29T04:05:58;4.30;;;2.77;;
6751;SDS011;3413;47.680;9.166;2022-07-29T04:11:01;6.00;;;2.57;;
6751;SDS011;3413;47.680;9.166;2022-07-29T04:16:04;5.10;;;2.33;;
6751;SDS011;3413;47.680;9.166;2022-07-29T04:21:06;5.13;;;2.97;;
6751;SDS011;3413;47.680;9.166;2022-07-29T04:26:08;4.70;;;2.80;;
6751;SDS011;3413;47.680;9.166;2022-07-29T04:31:12;4.07;;;2.50;;
6751;SDS011;3413;47.680;9.166;2022-07-29T04:36:15;3.97;;;2.60;;
6751;SDS011;3413;47.680;9.166;2022-07-29T04:41:30;4.77;;;2.87;;
6751;SDS011;3413;47.680;9.166;2022-07-29T04:46:33;4.97;;;2.73;;
6751;SDS011;3413;47.680;9.166;2022-07-29T04:51:36;4.17;;;2.63;;
6751;SDS011;3413;47.680;9.166;2022-07-29T04:56:39;3.73;;;2.70;;
6751;SDS011;3413;47.680;9.166;2022-07-29T05:01:41;6.63;;;2.80;;
6751;SDS011;3413;47.680;9.166;2022-07-29T05:06:43;4.70;;;2.90;;
6751;SDS011;3413;47.680;9.166;2022-07-29T05:11:45;5.77;;;2.77;;
6751;SDS011;3413;47.680;9.166;2022-07-29T05:16:48;3.90;;;2.83;;
6751;SDS011;3413;47.680;9.166;2022-07-29T05:21:52;4.40;;;2.30;;
6751;SDS011;3413;47.680;9.166;2022-07-29T05:26:54;6.53;;;2.93;;
6751;SDS011;3413;47.680;9.166;2022-07-29T05:31:56;3.80;;;2.73;;
6751;SDS011;3413;47.680;9.166;2022-07-29T05:37:00;4.17;;;2.87;;
6751;SDS011;3413;47.680;9.166;2022-07-29T05:42:02;3.27;;;2.63;;
6751;SDS011;3413;47.680;9.166;2022-07-29T05:47:05;5.00;;;2.73;;
6751;SDS011;3413;47.680;9.166;2022-07-29T05:52:07;3.33;;;2.50;;
6751;SDS011;3413;47.680;9.166;2022-07-29T05:57:16;5.30;;;3.27;;
6751;SDS011;3413;47.680;9.166;2022-07-29T06:02:19;5.17;;;2.93;;
6751;SDS011;3413;47.680;9.166;2022-07-29T06:07:21;4.70;;;3.00;;
6751;SDS011;3413;47.680;9.166;2022-07-29T06:12:24;4.33;;;3.10;;
6751;SDS011;3413;47.680;9.166;2022-07-29T06:17:26;4.67;;;3.53;;
6751;SDS011;3413;47.680;9.166;2022-07-29T06:22:28;6.27;;;3.50;;
6751;SDS011;3413;47.680;9.166;2022-07-29T06:27:30;5.60;;;3.37;;
6751;SDS011;3413;47.680;9.166;2022-07-29T06:32:32;8.33;;;3.03;;
6751;SDS011;3413;47.680;9.166;2022-07-29T06:37:34;6.73;;;3.40;;
6751;SDS011;3413;47.680;9.166;2022-07-29T06:42:45;6.63;;;3.00;;
6751;SDS011;3413;47.680;9.166;2022-07-29T06:47:47;3.93;;;2.67;;
6751;SDS011;3413;47.680;9.166;2022-07-29T06:52:49;4.33;;;2.57;;
6751;SDS011;3413;47.680;9.166;2022-07-29T06:57:52;6.20;;;2.60;;
6751;SDS011;3413;47.680;9.166;2022-07-29T07:02:54;6.80;;;3.00;;
6751;SDS011;3413;47.680;9.166;2022-07-29T07:07:56;3.93;;;3.17;;
6751;SDS011;3413;47.680;9.166;2022-07-29T07:12:59;5.37;;;2.90;;
6751;SDS011;3413;47.680;9.166;2022-07-29T07:18:01;6.10;;;3.40;;
6751;SDS011;3413;47.680;9.166;2022-07-29T07:23:04;6.63;;;3.50;;
6751;SDS011;3413;47.680;9.166;2022-07-29T07:28:06;3.83;;;2.70;;
6751;SDS011;3413;47.680;9.166;2022-07-29T07:33:08;5.60;;;3.10;;
6751;SDS011;3413;47.680;9.166;2022-07-29T07:38:10;5.53;;;3.90;;
6751;SDS011;3413;47.680;9.166;2022-07-29T07:43:12;6.30;;;4.00;;
6751;SDS011;3413;47.680;9.166;2022-07-29T07:48:15;7.70;;;3.97;;
6751;SDS011;3413;47.680;9.166;2022-07-29T07:53:17;6.93;;;3.53;;
6751;SDS011;3413;47.680;9.166;2022-07-29T07:58:19;7.20;;;3.63;;
6751;SDS011;3413;47.680;9.166;2022-07-29T08:03:21;5.90;;;3.33;;
6751;SDS011;3413;47.680;9.166;2022-07-29T08:08:23;4.17;;;3.00;;
6751;SDS011;3413;47.680;9.166;2022-07-29T08:13:26;4.60;;;3.00;;
6751;SDS011;3413;47.680;9.166;2022-07-29T08:18:31;5.60;;;3.60;;
6751;SDS011;3413;47.680;9.166;2022-07-29T08:23:34;5.53;;;3.40;;
6751;SDS011;3413;47.680;9.166;2022-07-29T08:28:54;5.47;;;3.20;;
6751;SDS011;3413;47.680;9.166;2022-07-29T08:33:57;6.80;;;3.10;;
6751;SDS011;3413;47.680;9.166;2022-07-29T08:39:01;4.40;;;2.63;;
6751;SDS011;3413;47.680;9.166;2022-07-29T08:44:03;7.50;;;3.30;;
6751;SDS011;3413;47.680;9.166;2022-07-29T08:49:05;9.13;;;2.90;;
6751;SDS011;3413;47.680;9.166;2022-07-29T08:54:08;6.30;;;3.27;;
6751;SDS011;3413;47.680;9.166;2022-07-29T08:59:11;5.93;;;3.53;;
6751;SDS011;3413;47.680;9.166;2022-07-29T09:04:15;5.43;;;3.83;;
6751;SDS011;3413;47.680;9.166;2022-07-29T09:09:18;5.13;;;3.60;;
6751;SDS011;3413;47.680;9.166;2022-07-29T09:14:20;5.53;;;3.00;;
6751;SDS011;3413;47.680;9.166;2022-07-29T09:19:26;3.70;;;2.73;;
6751;SDS011;3413;47.680;9.166;2022-07-29T09:29:38;4.63;;;3.10;;
6751;SDS011;3413;47.680;9.166;2022-07-29T09:34:41;5.00;;;3.10;;
6751;SDS011;3413;47.680;9.166;2022-07-29T09:39:43;4.33;;;3.10;;
6751;SDS011;3413;47.680;9.166;2022-07-29T09:45:09;4.50;;;3.37;;
6751;SDS011;3413;47.680;9.166;2022-07-29T09:50:12;5.00;;;3.43;;
6751;SDS011;3413;47.680;9.166;2022-07-29T09:55:15;6.33;;;3.70;;
6751;SDS011;3413;47.680;9.166;2022-07-29T10:00:20;7.27;;;3.50;;
6751;SDS011;3413;47.680;9.166;2022-07-29T10:05:25;8.13;;;3.67;;
6751;SDS011;3413;47.680;9.166;2022-07-29T10:10:38;6.70;;;4.17;;
6751;SDS011;3413;47.680;9.166;2022-07-29T10:15:41;5.07;;;3.40;;
6751;SDS011;3413;47.680;9.166;2022-07-29T10:20:45;6.30;;;3.60;;
6751;SDS011;3413;47.680;9.166;2022-07-29T10:25:47;4.20;;;2.97;;
6751;SDS011;3413;47.680;9.166;2022-07-29T10:30:49;5.40;;;2.93;;
6751;SDS011;3413;47.680;9.166;2022-07-29T10:36:02;5.10;;;3.30;;
6751;SDS011;3413;47.680;9.166;2022-07-29T10:46:37;4.43;;;2.80;;
6751;SDS011;3413;47.680;9.166;2022-07-29T10:51:51;8.37;;;2.90;;
6751;SDS011;3413;47.680;9.166;2022-07-29T10:56:53;4.03;;;2.80;;
6751;SDS011;3413;47.680;9.166;2022-07-29T11:01:55;5.23;;;2.83;;
6751;SDS011;3413;47.680;9.166;2022-07-29T11:07:17;4.23;;;2.93;;
6751;SDS011;3413;47.680;9.166;2022-07-29T11:23:00;4.27;;;2.97;;
6751;SDS011;3413;47.680;9.166;2022-07-29T11:28:16;8.97;;;3.60;;
6751;SDS011;3413;47.680;9.166;2022-07-29T11:33:26;4.87;;;2.17;;
6751;SDS011;3413;47.680;9.166;2022-07-29T11:38:52;3.47;;;2.50;;
6751;SDS011;3413;47.680;9.166;2022-07-29T11:44:15;4.07;;;2.60;;
6751;SDS011;3413;47.680;9.166;2022-07-29T11:49:19;3.73;;;2.40;;
6751;SDS011;3413;47.680;9.166;2022-07-29T11:54:33;6.40;;;2.90;;
6751;SDS011;3413;47.680;9.166;2022-07-29T11:59:55;3.60;;;2.67;;
6751;SDS011;3413;47.680;9.166;2022-07-29T12:05:10;7.07;;;2.50;;
6751;SDS011;3413;47.680;9.166;2022-07-29T12:10:13;6.80;;;3.10;;
6751;SDS011;3413;47.680;9.166;2022-07-29T12:15:30;4.80;;;2.40;;
6751;SDS011;3413;47.680;9.166;2022-07-29T12:20:47;5.90;;;2.60;;
6751;SDS011;3413;47.680;9.166;2022-07-29T12:25:49;4.60;;;3.10;;
6751;SDS011;3413;47.680;9.166;2022-07-29T12:30:54;4.13;;;2.40;;
6751;SDS011;3413;47.680;9.166;2022-07-29T12:35:57;7.73;;;3.60;;
6751;SDS011;3413;47.680;9.166;2022-07-29T12:41:17;5.10;;;3.20;;
6751;SDS011;3413;47.680;9.166;2022-07-29T12:46:20;5.60;;;3.17;;
6751;SDS011;3413;47.680;9.166;2022-07-29T12:51:29;4.77;;;3.60;;
6751;SDS011;3413;47.680;9.166;2022-07-29T12:56:32;8.33;;;3.50;;
6751;SDS011;3413;47.680;9.166;2022-07-29T13:01:45;8.73;;;4.70;;
6751;SDS011;3413;47.680;9.166;2022-07-29T13:06:58;5.97;;;4.53;;
6751;SDS011;3413;47.680;9.166;2022-07-29T13:12:01;9.97;;;5.80;;
6751;SDS011;3413;47.680;9.166;2022-07-29T13:17:12;9.77;;;5.00;;
6751;SDS011;3413;47.680;9.166;2022-07-29T13:22:17;9.07;;;5.53;;
6751;SDS011;3413;47.680;9.166;2022-07-29T13:27:21;13.40;;;5.20;;
6751;SDS011;3413;47.680;9.166;2022-07-29T13:32:25;8.07;;;5.70;;
6751;SDS011;3413;47.680;9.166;2022-07-29T13:37:30;7.60;;;5.20;;
6751;SDS011;3413;47.680;9.166;2022-07-29T13:42:35;11.10;;;5.60;;
6751;SDS011;3413;47.680;9.166;2022-07-29T13:47:37;8.50;;;5.47;;
6751;SDS011;3413;47.680;9.166;2022-07-29T13:52:45;5.67;;;4.27;;
6751;SDS011;3413;47.680;9.166;2022-07-29T13:57:49;6.53;;;3.80;;
6751;SDS011;3413;47.680;9.166;2022-07-29T14:02:51;5.30;;;3.87;;
6751;SDS011;3413;47.680;9.166;2022-07-29T14:07:53;6.90;;;3.37;;
6751;SDS011;3413;47.680;9.166;2022-07-29T14:12:55;6.10;;;3.07;;
6751;SDS011;3413;47.680;9.166;2022-07-29T14:17:58;4.63;;;3.23;;
6751;SDS011;3413;47.680;9.166;2022-07-29T14:23:00;9.23;;;3.53;;
6751;SDS011;3413;47.680;9.166;2022-07-29T14:28:03;8.43;;;3.67;;
6751;SDS011;3413;47.680;9.166;2022-07-29T14:33:05;6.27;;;4.63;;
6751;SDS011;3413;47.680;9.166;2022-07-29T14:38:07;8.80;;;4.33;;
6751;SDS011;3413;47.680;9.166;2022-07-29T14:43:10;6.23;;;4.00;;
6751;SDS011;3413;47.680;9.166;2022-07-29T14:48:12;8.40;;;4.47;;
6751;SDS011;3413;47.680;9.166;2022-07-29T14:53:14;6.50;;;4.90;;
6751;SDS011;3413;47.680;9.166;2022-07-29T14:58:16;7.73;;;4.70;;
6751;SDS011;3413;47.680;9.166;2022-07-29T15:03:18;9.27;;;4.67;;
6751;SDS011;3413;47.680;9.166;2022-07-29T15:08:24;6.33;;;4.40;;
6751;SDS011;3413;47.680;9.166;2022-07-29T15:13:29;14.40;;;4.67;;
6751;SDS011;3413;47.680;9.166;2022-07-29T15:18:31;6.97;;;4.97;;
6751;SDS011;3413;47.680;9.166;2022-07-29T15:23:33;8.73;;;4.93;;
6751;SDS011;3413;47.680;9.166;2022-07-29T15:28:37;6.73;;;4.67;;
6751;SDS011;3413;47.680;9.166;2022-07-29T15:33:39;9.60;;;5.00;;
6751;SDS011;3413;47.680;9.166;2022-07-29T15:38:41;7.57;;;5.47;;
6751;SDS011;3413;47.680;9.166;2022-07-29T15:43:45;6.40;;;4.73;;
6751;SDS011;3413;47.680;9.166;2022-07-29T15:48:48;9.73;;;5.40;;
6751;SDS011;3413;47.680;9.166;2022-07-29T15:53:50;10.23;;;5.77;;
6751;SDS011;3413;47.680;9.166;2022-07-29T15:58:54;6.80;;;4.67;;
6751;SDS011;3413;47.680;9.166;2022-07-29T16:03:56;7.87;;;4.03;;
6751;SDS011;3413;47.680;9.166;2022-07-29T16:08:58;10.33;;;4.83;;
6751;SDS011;3413;47.680;9.166;2022-07-29T16:14:01;8.90;;;4.27;;
6751;SDS011;3413;47.680;9.166;2022-07-29T16:19:03;12.50;;;5.20;;
6751;SDS011;3413;47.680;9.166;2022-07-29T16:24:06;5.50;;;4.60;;
6751;SDS011;3413;47.680;9.166;2022-07-29T16:29:08;5.77;;;4.40;;
6751;SDS011;3413;47.680;9.166;2022-07-29T16:34:10;8.37;;;4.73;;
6751;SDS011;3413;47.680;9.166;2022-07-29T16:39:12;7.70;;;4.07;;
6751;SDS011;3413;47.680;9.166;2022-07-29T16:44:14;7.97;;;5.00;;
6751;SDS011;3413;47.680;9.166;2022-07-29T16:49:16;5.77;;;4.50;;
6751;SDS011;3413;47.680;9.166;2022-07-29T16:54:19;6.77;;;4.67;;
6751;SDS011;3413;47.680;9.166;2022-07-29T16:59:22;8.87;;;4.87;;
6751;SDS011;3413;47.680;9.166;2022-07-29T17:04:23;6.43;;;5.10;;
6751;SDS011;3413;47.680;9.166;2022-07-29T17:09:26;6.27;;;5.00;;
6751;SDS011;3413;47.680;9.166;2022-07-29T17:14:29;7.13;;;5.47;;
6751;SDS011;3413;47.680;9.166;2022-07-29T17:19:32;10.00;;;5.13;;
6751;SDS011;3413;47.680;9.166;2022-07-29T17:24:35;7.57;;;5.03;;
6751;SDS011;3413;47.680;9.166;2022-07-29T17:29:40;6.60;;;5.20;;
6751;SDS011;3413;47.680;9.166;2022-07-29T17:34:43;7.37;;;5.17;;
6751;SDS011;3413;47.680;9.166;2022-07-29T17:39:45;9.40;;;5.50;;
6751;SDS011;3413;47.680;9.166;2022-07-29T17:44:48;6.47;;;5.03;;
6751;SDS011;3413;47.680;9.166;2022-07-29T17:49:50;7.43;;;4.90;;
6751;SDS011;3413;47.680;9.166;2022-07-29T17:54:52;6.63;;;4.87;;
6751;SDS011;3413;47.680;9.166;2022-07-29T17:59:54;7.83;;;5.03;;
6751;SDS011;3413;47.680;9.166;2022-07-29T18:04:56;8.57;;;4.50;;
6751;SDS011;3413;47.680;9.166;2022-07-29T18:09:58;5.40;;;4.40;;
6751;SDS011;3413;47.680;9.166;2022-07-29T18:15:01;5.50;;;4.10;;
6751;SDS011;3413;47.680;9.166;2022-07-29T18:20:04;6.70;;;4.30;;
6751;SDS011;3413;47.680;9.166;2022-07-29T18:25:06;7.20;;;4.30;;
6751;SDS011;3413;47.680;9.166;2022-07-29T18:30:09;5.93;;;4.27;;
6751;SDS011;3413;47.680;9.166;2022-07-29T18:35:11;5.30;;;4.23;;
6751;SDS011;3413;47.680;9.166;2022-07-29T18:40:13;6.00;;;4.07;;
6751;SDS011;3413;47.680;9.166;2022-07-29T18:45:15;5.73;;;4.20;;
6751;SDS011;3413;47.680;9.166;2022-07-29T18:50:20;6.60;;;4.17;;
6751;SDS011;3413;47.680;9.166;2022-07-29T18:55:29;6.53;;;4.07;;
6751;SDS011;3413;47.680;9.166;2022-07-29T19:00:31;5.20;;;3.63;;
6751;SDS011;3413;47.680;9.166;2022-07-29T19:05:33;9.40;;;5.70;;
6751;SDS011;3413;47.680;9.166;2022-07-29T19:10:35;7.93;;;4.23;;
6751;SDS011;3413;47.680;9.166;2022-07-29T19:15:38;8.07;;;3.80;;
6751;SDS011;3413;47.680;9.166;2022-07-29T19:20:40;7.07;;;3.70;;
6751;SDS011;3413;47.680;9.166;2022-07-29T19:25:42;5.20;;;3.70;;
6751;SDS011;3413;47.680;9.166;2022-07-29T19:30:54;4.50;;;3.33;;
6751;SDS011;3413;47.680;9.166;2022-07-29T19:35:57;6.40;;;4.17;;
6751;SDS011;3413;47.680;9.166;2022-07-29T19:40:59;5.27;;;3.60;;
6751;SDS011;3413;47.680;9.166;2022-07-29T19:46:01;7.13;;;3.83;;
6751;SDS011;3413;47.680;9.166;2022-07-29T19:51:04;6.43;;;4.27;;
6751;SDS011;3413;47.680;9.166;2022-07-29T19:56:06;4.27;;;3.30;;
6751;SDS011;3413;47.680;9.166;2022-07-29T20:01:09;5.00;;;3.80;;
6751;SDS011;3413;47.680;9.166;2022-07-29T20:06:11;4.70;;;3.37;;
6751;SDS011;3413;47.680;9.166;2022-07-29T20:11:14;6.20;;;3.70;;
6751;SDS011;3413;47.680;9.166;2022-07-29T20:16:15;4.60;;;3.53;;
6751;SDS011;3413;47.680;9.166;2022-07-29T20:21:18;5.10;;;3.47;;
6751;SDS011;3413;47.680;9.166;2022-07-29T20:26:20;7.13;;;4.30;;
6751;SDS011;3413;47.680;9.166;2022-07-29T20:31:22;4.47;;;3.30;;
6751;SDS011;3413;47.680;9.166;2022-07-29T20:36:24;6.70;;;3.87;;
6751;SDS011;3413;47.680;9.166;2022-07-29T20:41:27;5.10;;;3.73;;
6751;SDS011;3413;47.680;9.166;2022-07-29T20:46:30;5.90;;;4.27;;
6751;SDS011;3413;47.680;9.166;2022-07-29T20:51:32;4.80;;;4.20;;
6751;SDS011;3413;47.680;9.166;2022-07-29T20:56:44;5.27;;;3.90;;
6751;SDS011;3413;47.680;9.166;2022-07-29T21:01:46;5.83;;;4.00;;
6751;SDS011;3413;47.680;9.166;2022-07-29T21:06:48;5.70;;;4.20;;
6751;SDS011;3413;47.680;9.166;2022-07-29T21:11:50;5.27;;;3.93;;
6751;SDS011;3413;47.680;9.166;2022-07-29T21:16:52;7.60;;;4.00;;
6751;SDS011;3413;47.680;9.166;2022-07-29T21:21:55;6.40;;;4.40;;
6751;SDS011;3413;47.680;9.166;2022-07-29T21:26:57;5.47;;;3.90;;
6751;SDS011;3413;47.680;9.166;2022-07-29T21:32:21;5.00;;;4.00;;
6751;SDS011;3413;47.680;9.166;2022-07-29T21:37:30;7.83;;;3.97;;
6751;SDS011;3413;47.680;9.166;2022-07-29T21:42:32;5.40;;;4.10;;
6751;SDS011;3413;47.680;9.166;2022-07-29T21:47:35;4.23;;;3.50;;
6751;SDS011;3413;47.680;9.166;2022-07-29T21:52:37;4.67;;;3.90;;
6751;SDS011;3413;47.680;9.166;2022-07-29T21:57:40;5.00;;;4.10;;
6751;SDS011;3413;47.680;9.166;2022-07-29T22:02:42;8.00;;;4.10;;
6751;SDS011;3413;47.680;9.166;2022-07-29T22:07:44;4.90;;;4.20;;
6751;SDS011;3413;47.680;9.166;2022-07-29T22:12:58;6.03;;;4.27;;
6751;SDS011;3413;47.680;9.166;2022-07-29T22:18:01;5.57;;;4.13;;
6751;SDS011;3413;47.680;9.166;2022-07-29T22:23:03;6.37;;;4.20;;
6751;SDS011;3413;47.680;9.166;2022-07-29T22:28:05;7.03;;;3.80;;
6751;SDS011;3413;47.680;9.166;2022-07-29T22:33:07;5.00;;;4.10;;
6751;SDS011;3413;47.680;9.166;2022-07-29T22:38:17;6.80;;;4.70;;
6751;SDS011;3413;47.680;9.166;2022-07-29T22:43:19;5.53;;;4.47;;
6751;SDS011;3413;47.680;9.166;2022-07-29T22:48:21;6.80;;;4.43;;
6751;SDS011;3413;47.680;9.166;2022-07-29T22:53:24;4.27;;;3.60;;
6751;SDS011;3413;47.680;9.166;2022-07-29T22:58:26;5.17;;;4.10;;
6751;SDS011;3413;47.680;9.166;2022-07-29T23:03:29;4.70;;;3.93;;
6751;SDS011;3413;47.680;9.166;2022-07-29T23:08:31;4.97;;;3.80;;
6751;SDS011;3413;47.680;9.166;2022-07-29T23:13:34;4.50;;;3.83;;
6751;SDS011;3413;47.680;9.166;2022-07-29T23:18:38;7.70;;;4.67;;
6751;SDS011;3413;47.680;9.166;2022-07-29T23:23:40;7.93;;;4.10;;
6751;SDS011;3413;47.680;9.166;2022-07-29T23:28:45;5.37;;;4.07;;
6751;SDS011;3413;47.680;9.166;2022-07-29T23:33:47;8.57;;;3.97;;
6751;SDS011;3413;47.680;9.166;2022-07-29T23:38:49;3.70;;;3.23;;
6751;SDS011;3413;47.680;9.166;2022-07-29T23:43:51;5.50;;;3.77;;
6751;SDS011;3413;47.680;9.166;2022-07-29T23:48:53;4.70;;;3.70;;
6751;SDS011;3413;47.680;9.166;2022-07-29T23:53:55;4.33;;;3.27;;
6751;SDS011;3413;47.680;9.166;2022-07-29T23:58:57;4.90;;;3.60;;
